< Typhoon 196506 1965 Season Typhoon 196508 >
Typhoon 196507 (BABE)
General InformationTrack Information on Google Maps || Disaster Info.ResourceGoogle EarthGE AnimationAtom FeedGeoJSON
Detalied Best Track (Time Zone = UTC)
Year Month Day Hour Lat. Long. Pressure (hPa) Wind (kt) Class Image Chart
1965 5 30 06 17.8 109.0 1002 0 2 -- Chart
1965 5 30 12 17.7 109.3 1002 0 2 -- Chart
1965 5 30 18 17.2 109.9 1004 0 2 -- Chart
1965 5 31 00 16.8 110.2 1002 0 2 -- Chart
1965 5 31 06 16.4 110.8 998 0 9 -- Chart
1965 5 31 12 16.1 111.2 998 0 9 -- Chart
1965 5 31 18 15.9 111.7 998 0 9 -- Chart
1965 6 1 00 15.7 112.1 998 0 9 -- Chart
1965 6 1 06 15.6 112.6 998 0 9 -- Chart
1965 6 1 12 15.5 113.2 998 0 9 -- Chart
1965 6 1 18 15.7 113.5 998 0 9 -- Chart
1965 6 2 00 15.8 113.9 998 0 9 -- Chart
1965 6 2 06 16.0 114.0 998 0 9 -- Chart
1965 6 2 12 16.7 113.6 998 0 9 -- Chart
1965 6 2 18 17.3 113.2 994 0 9 -- Chart
1965 6 3 00 17.8 112.9 994 0 9 -- Chart
1965 6 3 06 18.8 113.1 990 0 9 -- Chart
1965 6 3 12 19.4 113.8 995 0 9 -- Chart
1965 6 3 18 19.9 114.2 995 0 9 -- Chart
1965 6 4 00 21.1 114.9 998 0 9 -- Chart
1965 6 4 06 22.1 115.3 998 0 9 -- Chart
1965 6 4 12 23.0 116.0 1004 0 9 -- Chart
1965 6 4 18 23.3 117.4 1004 0 2 -- Chart
1965 6 5 00 23.5 119.0 1004 0 2 -- Chart
1965 6 5 06 23.8 121.0 1004 0 2 -- Chart
1965 6 5 12 24.1 123.0 1004 0 2 -- Chart
1965 6 5 18 24.6 124.9 1003 0 2 -- Chart
1965 6 6 00 25.4 126.5 1005 0 2 -- Chart
1965 6 6 06 26.1 128.2 1004 0 2 -- Chart
1965 6 6 12 27.0 130.0 1004 0 2 -- Chart
1965 6 6 18 27.6 132.0 1005 0 2 -- Chart
1965 6 7 00 28.3 134.1 1004 0 2 -- Chart
1965 6 7 06 29.1 136.5 1004 0 2 -- Chart
1965 6 7 12 30.4 139.0 1006 0 2 -- Chart
1965 6 7 18 31.8 141.1 1007 0 2 -- Chart
1965 6 8 00 33.0 143.5 1010 0 2 -- Chart
1965 6 8 06 33.3 146.0 1010 0 2 -- Chart
1965 6 8 12 34.0 148.0 1014 0 2 -- Chart
Japan Meteorological Agency Best Track Data | Correction Date : 1989-06-01
< Typhoon 196506 1965 Season Typhoon 196508 >

Help